< < Back
Terminal Aerodrome Forecast


Current Version              Previous Versions:   1  2  3  4  5  6  7  8  9  

Terminal Aerodrome Forecast

170
FTUS44 KMOB 300500 RRA
TAFPNS
TAF
KPNS 300543Z 3006/0106 04004KT P6SM SKC
     FM301000 04005KT 2SM BR OVC004
     FM301400 05006KT P6SM SCT009 BKN015=

Latest METAR

223
SAUS70 KWBC 301200 RRE
MTRPNS
METAR KPNS 301153Z 04005KT 10SM OVC009 22/20 A2990 RMK AO2 CIG 007V013
SLP124 70001 T02170200 10228 20217 53008


USA.gov is the U.S. government's official web portal to all federal, state and local government web resources and services.